Sunday, September 23, 2018, 2:59 AM GMT
Back to Local

CYMX, Montreal / Mirabel

Location: , , Canada Lat: 45.683
Local Time: 2:59 AM GMT ( 2:59 GMT) Lon: -74.033
Time Zone: GMT Elev: 269 ft

Show me the last for .
Show Decoded

2018-09-23 02:00 METAR CYMX 230200Z 27004KT 25SM FEW250 08/05 A3022 RMK CI1 CI TR SLP236 =
2018-09-23 01:00 METAR CYMX 230100Z VRB02KT 25SM SKC 09/05 A3022 RMK SLP237 =
2018-09-23 00:00 METAR CYMX 230000Z 00000KT 25SM FEW260 10/04 A3022 RMK CI1 CI TR SLP238 =
2018-09-22 23:00 METAR CYMX 222300Z 00000KT 45SM FEW260 11/04 A3021 RMK CI1 CI TR SLP234 =
2018-09-22 22:00 METAR CYMX 222200Z 24005KT 200V290 45SM FEW260 14/04 A3020 RMK CI1 SLP230 =
2018-09-22 21:00 METAR CYMX 222100Z 25006KT 220V320 45SM FEW050 FEW260 14/02 A3019 RMK CF1CI1 CF
                 TR CI TR SLP227 =
2018-09-22 20:00 METAR CYMX 222000Z 28004KT 45SM FEW050 FEW260 15/03 A3020 RMK CF1CI1 CF TR
                 SLP228 =
2018-09-22 19:00 METAR CYMX 221900Z 31006KT 240V340 45SM FEW050 FEW260 14/02 A3020 RMK SC1CI1
                 SLP229 =
2018-09-22 18:00 METAR CYMX 221800Z 32007KT 220V350 45SM FEW050 FEW260 14/03 A3021 RMK CU1CI1 CU
                 TR SLP233 =
2018-09-22 17:00 METAR CYMX 221700Z 31007KT 220V360 45SM FEW050 SCT260 14/03 A3023 RMK SC2CI2
                 SLP240 =
2018-09-22 16:00 METAR CYMX 221600Z 31008G15KT 190V330 45SM FEW040 SCT260 12/03 A3023 RMK CU2CI1
                 WSHFT 1555 SLP240 =
2018-09-22 15:00 METAR CYMX 221500Z 30007KT 230V350 45SM SCT038 SCT150 SCT260 12/03 A3024 RMK
                 CU3AC1CI1 AC TR SLP242 =
2018-09-22 14:00 METAR CYMX 221400Z 32005KT 280V360 45SM FEW038 FEW150 SCT260 11/03 A3022 RMK
                 CU2AC1CI1 AC TR SLP237 =
2018-09-22 13:00 METAR CYMX 221300Z 33009KT 220V350 45SM BKN038 BKN150 BKN250 10/03 A3020 RMK
                 SC5AC1CI1 AC TR CI TR PRESRR SLP231 =
2018-09-22 12:00 METAR CYMX 221200Z VRB02KT 45SM FEW040 SCT250 09/03 A3016 RMK SC2CI1 SLP217 =
2018-09-22 11:00 METAR CYMX 221100Z 31007KT 260V340 45SM FEW040 SCT100 SCT250 09/03 A3011 RMK
                 SC2AC1CI1 CI TR PRESRR SLP200 =
2018-09-22 10:00 METAR CYMX 221000Z 32008G15KT 25SM SCT038 10/03 A3005 RMK SC3 SLP178 =
2018-09-22 09:00 METAR CYMX 220900Z 30007G19KT 260V340 25SM SCT035 11/04 A2997 RMK SC4 PRESRR
                 SLP151 =
2018-09-22 08:00 METAR CYMX 220800Z 31011G23KT 280V350 25SM BKN035 13/07 A2990 RMK SC5 PRESRR
                 SLP126 =
2018-09-22 07:00 METAR CYMX 220700Z 28006G23KT 250V350 25SM BKN060 15/07 A2980 RMK SC5 PRESRR
                 SLP095 DENSITY ALT 500FT =
2018-09-22 06:00 METAR CYMX 220600Z 26009G21KT 220V300 25SM BKN059 17/10 A2973 RMK SC6 PRESRR
                 SLP069 DENSITY ALT 800FT =
2018-09-22 05:00 METAR CYMX 220500Z 25011G22KT 210V280 25SM FEW040 19/12 A2967 RMK SC2 SLP050
                 DENSITY ALT 1100FT =
2018-09-22 04:00 METAR CYMX 220400Z 25010G24KT 210V290 25SM BKN041 20/15 A2962 RMK SC5 SLP034
                 DENSITY ALT 1300FT =
2018-09-22 03:00 METAR CYMX 220300Z 23012G22KT 25SM SCT035 21/18 A2959 RMK SC3 SLP022 DENSITY ALT
                 1400FT =

Support USWX by starting your Amazon purchase here.